createdAt,value
2023-05-03T00:03:32.929Z,99.90
2023-05-03T00:07:33.151Z,99.90
2023-05-03T00:11:37.249Z,99.90
2023-05-03T00:15:37.402Z,99.90
2023-05-03T00:19:38.300Z,99.90
2023-05-03T00:23:38.513Z,99.90
2023-05-03T00:27:41.401Z,99.90
2023-05-03T00:31:41.628Z,99.90
2023-05-03T00:35:41.967Z,99.90
2023-05-03T00:39:42.250Z,99.90
2023-05-03T00:43:45.000Z,99.90
2023-05-03T00:47:45.386Z,99.90
2023-05-03T00:51:45.956Z,99.90
2023-05-03T00:55:48.438Z,99.90
2023-05-03T00:59:52.978Z,99.90
2023-05-03T01:03:53.294Z,99.90
2023-05-03T01:08:10.516Z,99.90
2023-05-03T01:12:26.878Z,99.90
2023-05-03T01:16:40.889Z,99.90
2023-05-03T01:20:45.114Z,99.90
2023-05-03T01:24:54.019Z,99.90
2023-05-03T01:28:58.637Z,99.90
2023-05-03T01:33:08.607Z,99.90
2023-05-03T01:37:14.023Z,99.90
2023-05-03T01:41:17.423Z,99.90
2023-05-03T01:45:21.243Z,99.90
2023-05-03T01:49:22.381Z,99.90
2023-05-03T01:53:23.160Z,99.90
2023-05-03T01:57:23.405Z,99.90
2023-05-03T02:01:26.349Z,99.90
2023-05-03T02:05:26.537Z,99.90
2023-05-03T02:09:28.446Z,99.90
2023-05-03T02:13:28.749Z,99.90
2023-05-03T02:17:31.673Z,99.90
2023-05-03T02:21:31.942Z,99.90
2023-05-03T02:25:32.457Z,99.90
2023-05-03T02:29:32.702Z,99.90
2023-05-03T02:33:37.574Z,99.90
2023-05-03T02:37:37.822Z,99.90
2023-05-03T02:41:42.873Z,99.90
2023-05-03T02:45:43.177Z,99.90
2023-05-03T02:49:48.383Z,99.90
2023-05-03T02:53:49.435Z,99.90
2023-05-03T02:57:49.659Z,99.90
2023-05-03T03:01:53.173Z,99.90
2023-05-03T03:05:59.071Z,99.90
2023-05-03T03:09:59.351Z,99.90
2023-05-03T03:13:59.811Z,99.90
2023-05-03T03:18:01.180Z,99.90
2023-05-03T03:22:04.413Z,99.90
2023-05-03T03:26:05.316Z,99.90
2023-05-03T03:30:08.285Z,99.90
2023-05-03T03:34:15.179Z,99.90
2023-05-03T03:38:18.272Z,99.90
2023-05-03T03:42:29.469Z,99.90
2023-05-03T03:46:31.352Z,99.90
2023-05-03T03:50:32.852Z,99.90
2023-05-03T03:54:36.124Z,99.90
2023-05-03T03:58:37.081Z,99.90
2023-05-03T04:02:41.331Z,99.90
2023-05-03T04:06:49.486Z,99.90
2023-05-03T04:10:53.372Z,99.90
2023-05-03T04:14:55.177Z,99.90
2023-05-03T04:18:55.575Z,99.90
2023-05-03T04:22:55.974Z,99.90
2023-05-03T04:27:04.675Z,99.90
2023-05-03T04:31:07.796Z,99.90
2023-05-03T04:35:13.079Z,99.90
2023-05-03T04:39:17.907Z,99.90
2023-05-03T04:43:23.450Z,99.90
2023-05-03T04:47:25.485Z,99.90
2023-05-03T04:51:28.466Z,99.90
2023-05-03T04:55:29.648Z,99.90
2023-05-03T04:59:34.840Z,99.90
2023-05-03T05:03:35.566Z,99.90
2023-05-03T05:07:41.019Z,99.90
2023-05-03T05:11:43.152Z,99.90
2023-05-03T05:15:46.542Z,99.90
2023-05-03T05:19:47.500Z,99.90
2023-05-03T05:23:49.115Z,99.90
2023-05-03T05:27:49.969Z,99.90
2023-05-03T05:31:53.284Z,99.90
2023-05-03T05:35:54.609Z,99.90
2023-05-03T05:39:56.408Z,99.90
2023-05-03T05:44:00.960Z,99.90
2023-05-03T05:48:06.159Z,99.90
2023-05-03T05:52:08.239Z,99.90
2023-05-03T05:56:09.080Z,99.90
2023-05-03T06:00:14.986Z,99.90
2023-05-03T06:04:19.633Z,99.90
2023-05-03T06:08:20.523Z,99.90
2023-05-03T06:12:21.074Z,99.90
2023-05-03T06:16:22.393Z,99.90
2023-05-03T06:20:26.531Z,99.90
2023-05-03T06:24:31.433Z,99.90
2023-05-03T06:28:31.607Z,99.90
2023-05-03T06:32:31.922Z,99.90
2023-05-03T06:36:35.741Z,99.90
2023-05-03T06:40:38.541Z,99.90
2023-05-03T06:44:38.894Z,99.90
2023-05-03T06:48:39.652Z,99.90
2023-05-03T06:52:42.774Z,99.90
2023-05-03T06:56:43.101Z,99.90
2023-05-03T07:00:43.438Z,99.90
2023-05-03T07:04:43.720Z,99.90
2023-05-03T07:08:47.164Z,99.90
2023-05-03T07:12:47.411Z,99.90
2023-05-03T07:16:47.694Z,99.90
2023-05-03T07:20:49.042Z,99.90
2023-05-03T07:24:51.934Z,99.90
2023-05-03T07:28:52.303Z,99.90
2023-05-03T07:32:52.845Z,99.90
2023-05-03T07:36:53.113Z,99.90
2023-05-03T07:40:56.069Z,99.90
2023-05-03T07:44:56.434Z,99.90
2023-05-03T07:48:56.549Z,99.90
2023-05-03T07:52:56.951Z,99.90
2023-05-03T07:56:59.800Z,99.90
2023-05-03T08:01:00.173Z,99.90
2023-05-03T08:05:00.844Z,99.90
2023-05-03T08:09:01.439Z,99.90
2023-05-03T08:13:04.173Z,99.90
2023-05-03T08:17:04.922Z,99.90
2023-05-03T08:21:05.079Z,99.90
2023-05-03T08:25:05.225Z,99.90
2023-05-03T08:29:08.497Z,99.90
2023-05-03T08:33:10.106Z,99.90
2023-05-03T08:37:10.494Z,99.90
2023-05-03T08:41:26.148Z,99.90
2023-05-03T08:45:29.341Z,99.90
2023-05-03T08:49:30.914Z,99.90
2023-05-03T08:53:32.760Z,99.90
2023-05-03T08:57:34.684Z,99.90
2023-05-03T09:01:40.259Z,99.90
2023-05-03T09:05:44.432Z,99.90
2023-05-03T09:09:47.058Z,99.90
2023-05-03T09:13:47.817Z,99.90
2023-05-03T09:18:13.577Z,99.90
2023-05-03T09:22:14.455Z,99.90
2023-05-03T09:26:30.533Z,99.90
2023-05-03T09:30:30.972Z,99.90
2023-05-03T09:34:34.961Z,99.90
2023-05-03T09:38:37.985Z,99.90
2023-05-03T09:42:39.176Z,99.90
2023-05-03T09:46:40.216Z,99.90
2023-05-03T09:50:45.785Z,99.90
2023-05-03T09:54:47.389Z,99.90
2023-05-03T09:58:47.961Z,99.90
2023-05-03T10:02:51.525Z,99.90
2023-05-03T10:07:01.080Z,99.90
2023-05-03T10:11:01.701Z,97.60
2023-05-03T10:15:07.427Z,99.00
2023-05-03T10:19:16.333Z,99.60
2023-05-03T10:23:20.978Z,99.90
2023-05-03T10:27:21.168Z,99.90
2023-05-03T10:31:50.501Z,99.90
2023-05-03T10:35:55.542Z,98.20
2023-05-03T10:39:59.631Z,95.00
2023-05-03T10:43:59.897Z,96.20
2023-05-03T10:48:23.457Z,98.20
2023-05-03T10:52:51.837Z,95.40
2023-05-03T10:56:59.925Z,91.20
2023-05-03T11:01:01.337Z,89.70
2023-05-03T11:05:09.380Z,88.60
2023-05-03T11:09:15.071Z,84.70
2023-05-03T11:13:18.481Z,74.90
2023-05-03T11:17:19.115Z,68.10
2023-05-03T11:21:21.432Z,63.00
2023-05-03T11:25:21.797Z,65.10
2023-05-03T11:29:27.475Z,66.10
2023-05-03T11:33:29.596Z,60.70
2023-05-03T11:37:30.502Z,57.70
2023-05-03T11:41:30.740Z,59.80
2023-05-03T11:45:44.409Z,58.30
2023-05-03T11:49:54.766Z,55.50
2023-05-03T11:53:55.222Z,55.00
2023-05-03T11:57:55.507Z,57.00
2023-05-03T12:01:59.815Z,62.20
2023-05-03T12:06:01.785Z,63.80
2023-05-03T12:14:06.939Z,60.30
2023-05-03T12:18:12.761Z,56.70
2023-05-03T12:22:26.355Z,55.70
2023-05-03T12:26:27.620Z,54.10
2023-05-03T12:30:29.038Z,50.90
2023-05-03T12:34:35.426Z,52.60
2023-05-03T12:38:37.794Z,53.90
2023-05-03T12:42:40.043Z,52.00
2023-05-03T12:46:45.241Z,52.60
2023-05-03T12:50:51.898Z,49.80
2023-05-03T12:54:55.680Z,50.80
2023-05-03T13:07:12.530Z,46.60
2023-05-03T13:11:14.093Z,48.50
2023-05-03T13:15:14.823Z,46.00
2023-05-03T13:19:15.329Z,44.50
2023-05-03T13:23:18.398Z,45.60
2023-05-03T13:27:19.933Z,46.60
2023-05-03T13:31:21.015Z,47.50
2023-05-03T13:35:21.583Z,47.70
2023-05-03T13:39:24.475Z,48.10
2023-05-03T13:43:24.848Z,45.70
2023-05-03T13:47:26.987Z,47.00
2023-05-03T13:51:29.691Z,49.30
2023-05-03T13:55:32.755Z,50.20
2023-05-03T13:59:33.037Z,49.00
2023-05-03T14:03:34.970Z,49.50
2023-05-03T14:07:36.517Z,48.40
2023-05-03T14:11:39.885Z,47.70
2023-05-03T14:15:43.606Z,49.50
2023-05-03T14:19:43.877Z,49.50
2023-05-03T14:23:45.147Z,52.40
2023-05-03T14:27:48.101Z,50.50
2023-05-03T14:31:48.524Z,50.00
2023-05-03T14:35:48.891Z,49.20
2023-05-03T14:39:49.106Z,49.10
2023-05-03T14:43:51.879Z,47.90
2023-05-03T14:47:52.404Z,46.90
2023-05-03T14:51:52.667Z,46.20
2023-05-03T14:55:54.651Z,46.20
2023-05-03T14:59:57.680Z,46.00
2023-05-03T15:03:58.032Z,46.40
2023-05-03T15:07:59.093Z,47.00
2023-05-03T15:11:59.751Z,46.30
2023-05-03T15:16:02.524Z,46.20
2023-05-03T15:20:03.100Z,47.10
2023-05-03T15:24:04.368Z,46.30
2023-05-03T15:28:04.895Z,47.00
2023-05-03T15:32:08.740Z,46.40
2023-05-03T15:36:12.293Z,45.40
2023-05-03T15:40:14.755Z,46.10
2023-05-03T15:44:16.371Z,46.90
2023-05-03T15:48:19.286Z,45.20
2023-05-03T15:52:19.469Z,47.20
2023-05-03T15:56:21.011Z,46.30
2023-05-03T16:00:23.149Z,47.40
2023-05-03T16:04:26.102Z,45.40
2023-05-03T16:08:26.534Z,46.40
2023-05-03T16:12:27.517Z,45.70
2023-05-03T16:16:28.435Z,47.60
2023-05-03T16:20:31.478Z,48.20
2023-05-03T16:24:31.639Z,48.60
2023-05-03T16:28:31.888Z,47.20
2023-05-03T16:32:32.190Z,47.00
2023-05-03T16:36:42.590Z,48.10
2023-05-03T16:40:43.455Z,49.50
2023-05-03T16:44:43.680Z,49.40
2023-05-03T16:48:43.871Z,50.60
2023-05-03T16:52:47.614Z,50.60
2023-05-03T16:56:48.197Z,52.30
2023-05-03T17:00:48.763Z,52.70
2023-05-03T17:04:49.141Z,52.30
2023-05-03T17:08:52.145Z,52.60
2023-05-03T17:12:52.892Z,52.30
2023-05-03T17:16:53.541Z,52.80
2023-05-03T17:20:53.789Z,53.00
2023-05-03T17:24:57.485Z,52.80
2023-05-03T17:28:57.685Z,54.60
2023-05-03T17:32:57.896Z,54.40
2023-05-03T17:36:59.365Z,53.60
2023-05-03T17:41:07.864Z,54.90
2023-05-03T17:45:10.253Z,55.80
2023-05-03T17:49:10.587Z,55.10
2023-05-03T17:53:11.958Z,55.80
2023-05-03T17:57:15.045Z,57.20
2023-05-03T18:01:16.017Z,57.10
2023-05-03T18:05:17.706Z,59.90
2023-05-03T18:09:18.589Z,60.90
2023-05-03T18:13:21.636Z,62.40
2023-05-03T18:17:22.746Z,65.70
2023-05-03T18:21:23.662Z,67.90
2023-05-03T18:25:24.112Z,69.30
2023-05-03T18:29:26.986Z,74.00
2023-05-03T18:33:27.547Z,78.80
2023-05-03T18:37:27.921Z,80.70
2023-05-03T18:41:28.113Z,83.80
2023-05-03T18:45:31.329Z,86.40
2023-05-03T18:49:31.502Z,89.90
2023-05-03T18:53:32.190Z,91.70
2023-05-03T18:57:32.477Z,92.30
2023-05-03T19:01:35.369Z,94.60
2023-05-03T19:05:36.493Z,95.60
2023-05-03T19:09:36.820Z,97.30
2023-05-03T19:13:37.054Z,99.90
2023-05-03T19:17:40.575Z,99.90
2023-05-03T19:21:42.635Z,99.90
2023-05-03T19:25:42.945Z,99.90
2023-05-03T19:29:43.220Z,99.90
2023-05-03T19:33:46.598Z,99.90
2023-05-03T19:37:46.829Z,99.90
2023-05-03T19:41:47.451Z,99.90
2023-05-03T19:45:47.821Z,99.90
2023-05-03T19:49:50.749Z,99.90
2023-05-03T19:53:51.163Z,99.90
2023-05-03T19:57:51.412Z,99.90
2023-05-03T20:01:51.898Z,99.90
2023-05-03T20:05:54.846Z,99.90
2023-05-03T20:09:55.221Z,99.90
2023-05-03T20:13:55.500Z,99.90
2023-05-03T20:17:56.981Z,99.90
2023-05-03T20:21:59.803Z,99.90
2023-05-03T20:26:01.742Z,99.90
2023-05-03T20:30:04.759Z,99.90
2023-05-03T20:34:05.340Z,99.90
2023-05-03T20:38:08.398Z,99.90
2023-05-03T20:42:08.865Z,99.90
2023-05-03T20:46:09.252Z,99.90
2023-05-03T20:50:11.943Z,99.90
2023-05-03T20:54:14.742Z,99.90
2023-05-03T20:58:16.260Z,99.90
2023-05-03T21:02:16.559Z,99.90
2023-05-03T21:06:16.826Z,99.90
2023-05-03T21:10:19.683Z,99.90
2023-05-03T21:14:20.076Z,99.90
2023-05-03T21:18:21.703Z,99.90
2023-05-03T21:22:22.877Z,99.90
2023-05-03T21:26:26.339Z,99.90
2023-05-03T21:30:26.587Z,99.90
2023-05-03T21:34:26.941Z,99.90
2023-05-03T21:38:27.302Z,99.90
2023-05-03T21:42:30.397Z,99.90
2023-05-03T21:46:30.682Z,99.90
2023-05-03T21:50:31.197Z,99.90
2023-05-03T21:54:31.845Z,99.90
2023-05-03T21:58:34.922Z,99.90
2023-05-03T22:02:35.225Z,99.90
2023-05-03T22:06:35.737Z,99.90
2023-05-03T22:10:36.672Z,99.90
2023-05-03T22:14:39.478Z,99.90
2023-05-03T22:18:42.432Z,99.90
2023-05-03T22:22:42.900Z,99.90
2023-05-03T22:26:43.083Z,99.90
2023-05-03T22:30:45.811Z,99.90
2023-05-03T22:34:46.787Z,99.90
2023-05-03T22:38:48.083Z,99.90
2023-05-03T22:42:48.483Z,99.90
2023-05-03T22:46:51.186Z,99.90
2023-05-03T22:50:51.848Z,99.90
2023-05-03T22:54:52.064Z,99.90
2023-05-03T22:58:52.296Z,99.90
2023-05-03T23:02:55.149Z,99.90
2023-05-03T23:06:56.718Z,99.90
2023-05-03T23:10:59.505Z,99.90
2023-05-03T23:14:59.881Z,99.90
2023-05-03T23:19:02.654Z,99.90
2023-05-03T23:23:02.867Z,99.90
2023-05-03T23:27:03.595Z,99.90
2023-05-03T23:31:04.613Z,99.90
2023-05-03T23:35:09.590Z,99.90
2023-05-03T23:39:09.963Z,99.90
2023-05-03T23:43:10.391Z,99.90
2023-05-03T23:47:10.769Z,99.90
2023-05-03T23:51:13.548Z,99.90
2023-05-03T23:55:14.908Z,99.90
2023-05-03T23:59:15.231Z,99.90
